Time;durP1;ratioP1;P1;durP2;ratioP2;P2;SDS_P1;SDS_P2;PMS_P1;PMS_P2;Temp;Humidity;BMP_temperature;BMP_pressure;BME280_temperature;BME280_humidity;BME280_pressure;Samples;Min_cycle;Max_cycle;Signal;HPM_P1;HPM_P2
2024/03/01 00:02:15;;;;;;;49.43;22.47;;;;;;;;;;5014113;28;20033;-57
2024/03/01 00:04:42;;;;;;;45.15;22.80;;;;;;;;;;5011812;28;20025;-58
2024/03/01 00:07:07;;;;;;;49.35;21.30;;;;;;;;;;5011325;28;20026;-57
2024/03/01 00:09:32;;;;;;;47.70;21.55;;;;;;;;;;5013889;28;20025;-57
2024/03/01 00:11:57;;;;;;;49.85;22.15;;;;;;;;;;5011260;28;20046;-57
2024/03/01 00:14:22;;;;;;;42.33;20.97;;;;;;;;;;4999891;28;20022;-58
2024/03/01 00:16:48;;;;;;;45.80;21.10;;;;;;;;;;4999534;28;20448;-57
2024/03/01 00:19:13;;;;;;;45.67;21.57;;;;;;;;;;5011890;28;20034;-57
2024/03/01 00:21:38;;;;;;;46.05;20.80;;;;;;;;;;5011388;28;20032;-59
2024/03/01 00:24:05;;;;;;;49.87;20.80;;;;;;;;;;5010366;28;20029;-58
2024/03/01 00:26:30;;;;;;;42.83;20.38;;;;;;;;;;5013293;28;21019;-57
2024/03/01 00:28:55;;;;;;;42.17;20.00;;;;;;;;;;5010977;28;20021;-59
2024/03/01 00:31:20;;;;;;;45.40;21.33;;;;;;;;;;5010977;28;20068;-57
2024/03/01 00:33:45;;;;;;;39.42;20.20;;;;;;;;;;5008332;28;20030;-56
2024/03/01 00:36:10;;;;;;;41.07;20.20;;;;;;;;;;5011294;28;20087;-59
2024/03/01 00:38:36;;;;;;;46.60;20.50;;;;;;;;;;5010552;28;20034;-57
2024/03/01 00:41:01;;;;;;;47.80;22.08;;;;;;;;;;5006285;28;20041;-57
2024/03/01 00:43:26;;;;;;;41.53;19.53;;;;;;;;;;5014063;28;20375;-58
2024/03/01 00:45:51;;;;;;;45.43;20.93;;;;;;;;;;5010504;28;20459;-57
2024/03/01 00:48:16;;;;;;;50.20;20.50;;;;;;;;;;5011102;28;20057;-57
2024/03/01 00:50:42;;;;;;;50.47;20.67;;;;;;;;;;5010434;28;20033;-57
2024/03/01 00:53:08;;;;;;;43.40;21.50;;;;;;;;;;5008558;28;20056;-57
2024/03/01 00:55:33;;;;;;;;;;;;;;;;;;5011256;28;20026;-56
2024/03/01 00:57:59;;;;;;;44.78;21.48;;;;;;;;;;5013443;28;19999;-58
2024/03/01 01:00:24;;;;;;;43.10;20.73;;;;;;;;;;5000545;28;20037;-57
2024/03/01 01:02:50;;;;;;;44.47;20.33;;;;;;;;;;5001465;28;20033;-58
2024/03/01 01:05:15;;;;;;;44.30;21.70;;;;;;;;;;5014593;28;20470;-58
2024/03/01 01:07:40;;;;;;;48.07;21.73;;;;;;;;;;5014500;28;20014;-58
2024/03/01 01:10:06;;;;;;;47.63;21.10;;;;;;;;;;5014335;28;20425;-57
2024/03/01 01:12:31;;;;;;;45.70;21.77;;;;;;;;;;5013096;28;20053;-57
2024/03/01 01:14:57;;;;;;;45.90;22.92;;;;;;;;;;5013469;28;20033;-58
2024/03/01 01:17:23;;;;;;;41.63;21.40;;;;;;;;;;5014698;28;20076;-58
2024/03/01 01:19:48;;;;;;;44.35;22.00;;;;;;;;;;5014314;28;20129;-58
2024/03/01 01:22:15;;;;;;;48.00;20.92;;;;;;;;;;5018302;28;20489;-58
2024/03/01 01:24:40;;;;;;;47.42;22.15;;;;;;;;;;5018037;28;20026;-57
2024/03/01 01:27:05;;;;;;;41.67;20.55;;;;;;;;;;5019926;28;20150;-63
2024/03/01 01:29:30;;;;;;;45.28;19.90;;;;;;;;;;5026045;28;20041;-58
2024/03/01 01:31:55;;;;;;;40.97;19.45;;;;;;;;;;5018325;28;20044;-57
2024/03/01 01:34:20;;;;;;;44.70;19.60;;;;;;;;;;5014500;28;20030;-58
2024/03/01 01:36:45;;;;;;;48.93;21.03;;;;;;;;;;5014100;28;20049;-57
2024/03/01 01:39:11;;;;;;;43.20;19.55;;;;;;;;;;5013585;28;20040;-57
2024/03/01 01:41:36;;;;;;;43.58;20.77;;;;;;;;;;5013792;28;20022;-58
2024/03/01 01:44:02;;;;;;;40.07;19.63;;;;;;;;;;5013597;28;20025;-57
2024/03/01 01:46:27;;;;;;;50.33;22.47;;;;;;;;;;5017811;28;20053;-59
2024/03/01 01:48:52;;;;;;;43.58;21.05;;;;;;;;;;5013135;28;20022;-58
2024/03/01 01:51:17;;;;;;;51.30;24.20;;;;;;;;;;5018422;28;20116;-57
2024/03/01 01:53:43;;;;;;;47.95;21.45;;;;;;;;;;5019783;28;20022;-57
2024/03/01 01:56:08;;;;;;;42.03;20.38;;;;;;;;;;5013395;28;20026;-58
2024/03/01 01:58:34;;;;;;;50.25;22.88;;;;;;;;;;5018258;28;20022;-56
2024/03/01 02:01:00;;;;;;;45.30;21.77;;;;;;;;;;5019296;28;20026;-57
2024/03/01 02:03:27;;;;;;;51.53;22.83;;;;;;;;;;5012727;28;20025;-58
2024/03/01 02:05:52;;;;;;;;;;;;;;;;;;5013314;28;20022;-57
2024/03/01 02:08:18;;;;;;;42.47;20.90;;;;;;;;;;5013136;28;19916;-58
2024/03/01 02:10:45;;;;;;;50.45;22.35;;;;;;;;;;5013447;28;20093;-57
2024/03/01 02:13:16;;;;;;;51.83;23.38;;;;;;;;;;5012324;28;20025;-57
2024/03/01 02:15:41;;;;;;;53.20;24.02;;;;;;;;;;5003614;28;20014;-57
2024/03/01 02:18:07;;;;;;;50.50;23.90;;;;;;;;;;5012620;28;20072;-58
2024/03/01 02:20:32;;;;;;;54.50;25.60;;;;;;;;;;5014220;28;20027;-58
2024/03/01 02:22:59;;;;;;;51.75;24.73;;;;;;;;;;5016739;28;20026;-57
2024/03/01 02:25:24;;;;;;;44.92;22.63;;;;;;;;;;5012445;28;20076;-57
2024/03/01 02:27:50;;;;;;;55.17;24.00;;;;;;;;;;5012388;28;20034;-57
2024/03/01 02:30:15;;;;;;;57.08;24.10;;;;;;;;;;5010302;28;20122;-57
2024/03/01 02:32:40;;;;;;;49.50;22.50;;;;;;;;;;5012994;28;20474;-58
2024/03/01 02:35:06;;;;;;;49.73;23.43;;;;;;;;;;5011914;28;20989;-56
2024/03/01 02:37:31;;;;;;;47.45;22.92;;;;;;;;;;5012021;28;20014;-57
2024/03/01 02:39:56;;;;;;;45.38;22.10;;;;;;;;;;5012280;28;20045;-57
2024/03/01 02:42:21;;;;;;;46.23;22.07;;;;;;;;;;5012312;28;20484;-57
2024/03/01 02:44:46;;;;;;;44.20;22.98;;;;;;;;;;5012178;28;20033;-57
2024/03/01 02:47:11;;;;;;;49.57;23.33;;;;;;;;;;5012692;28;20033;-57
2024/03/01 02:49:37;;;;;;;46.47;20.53;;;;;;;;;;5003035;28;20026;-57
2024/03/01 02:52:02;;;;;;;49.33;21.80;;;;;;;;;;5008721;28;20026;-58
2024/03/01 02:54:27;;;;;;;45.70;22.33;;;;;;;;;;5011836;28;20030;-59
2024/03/01 02:56:52;;;;;;;48.40;23.57;;;;;;;;;;5011993;28;20032;-57
2024/03/01 02:59:18;;;;;;;50.78;23.52;;;;;;;;;;5011622;28;20461;-56
2024/03/01 03:01:43;;;;;;;54.87;24.37;;;;;;;;;;5011657;28;20025;-57
2024/03/01 03:04:08;;;;;;;44.05;23.70;;;;;;;;;;5017554;28;20505;-57
2024/03/01 03:06:33;;;;;;;54.42;23.75;;;;;;;;;;5013333;28;20017;-57
2024/03/01 03:08:58;;;;;;;46.97;22.77;;;;;;;;;;5012898;28;20037;-58
2024/03/01 03:11:25;;;;;;;46.00;22.90;;;;;;;;;;5011278;28;20029;-57
2024/03/01 03:13:50;;;;;;;45.85;21.33;;;;;;;;;;5011938;28;20026;-58
2024/03/01 03:16:15;;;;;;;45.03;20.83;;;;;;;;;;5012793;28;20088;-57
2024/03/01 03:18:41;;;;;;;49.05;24.27;;;;;;;;;;5015729;28;20018;-57
2024/03/01 03:21:06;;;;;;;46.70;21.73;;;;;;;;;;5015801;28;20114;-57
2024/03/01 03:23:31;;;;;;;48.63;23.40;;;;;;;;;;5021714;28;20021;-58
2024/03/01 03:25:57;;;;;;;44.47;21.30;;;;;;;;;;5012776;28;20036;-58
2024/03/01 03:28:22;;;;;;;45.50;21.03;;;;;;;;;;5013816;28;20034;-57
2024/03/01 03:30:47;;;;;;;44.63;21.47;;;;;;;;;;5014565;28;20021;-56
2024/03/01 03:33:12;;;;;;;48.40;23.27;;;;;;;;;;5014166;28;20453;-57
2024/03/01 03:35:37;;;;;;;47.05;23.15;;;;;;;;;;5020996;28;20042;-57
2024/03/01 03:38:03;;;;;;;44.50;21.40;;;;;;;;;;5013526;28;20441;-57
2024/03/01 03:40:28;;;;;;;47.00;21.58;;;;;;;;;;5011949;28;20037;-57
2024/03/01 03:42:53;;;;;;;45.80;22.10;;;;;;;;;;5011838;28;20022;-57
2024/03/01 03:45:19;;;;;;;42.67;20.63;;;;;;;;;;5011583;28;20017;-57
2024/03/01 03:47:44;;;;;;;46.30;21.92;;;;;;;;;;5011773;28;20091;-57
2024/03/01 03:50:09;;;;;;;40.07;20.50;;;;;;;;;;5013340;28;20485;-57
2024/03/01 03:52:34;;;;;;;44.43;21.53;;;;;;;;;;5009898;28;20029;-56
2024/03/01 03:55:00;;;;;;;41.38;19.45;;;;;;;;;;5009404;28;20029;-57
2024/03/01 03:57:25;;;;;;;48.47;21.98;;;;;;;;;;4999824;28;20033;-57
2024/03/01 03:59:50;;;;;;;43.53;21.50;;;;;;;;;;5009797;28;20022;-56
2024/03/01 04:02:15;;;;;;;49.83;22.95;;;;;;;;;;5011000;28;20026;-58
2024/03/01 04:04:40;;;;;;;42.10;20.93;;;;;;;;;;5011628;28;20030;-57
2024/03/01 04:07:06;;;;;;;47.25;21.65;;;;;;;;;;5013676;28;20132;-57
2024/03/01 04:09:31;;;;;;;47.00;22.03;;;;;;;;;;5013837;28;20033;-58
2024/03/01 04:11:57;;;;;;;49.13;22.13;;;;;;;;;;5017067;28;20026;-58
2024/03/01 04:14:23;;;;;;;48.05;21.98;;;;;;;;;;5017143;28;20028;-57
2024/03/01 04:16:48;;;;;;;47.28;21.20;;;;;;;;;;5014069;28;20030;-59
2024/03/01 04:19:13;;;;;;;44.97;19.77;;;;;;;;;;5013076;28;20102;-57
2024/03/01 04:21:38;;;;;;;52.17;21.77;;;;;;;;;;5011599;28;20049;-57
2024/03/01 04:24:08;;;;;;;49.37;21.30;;;;;;;;;;5019285;28;20040;-57
2024/03/01 04:26:34;;;;;;;43.70;18.63;;;;;;;;;;5010602;28;20101;-57
2024/03/01 04:28:59;;;;;;;42.40;20.35;;;;;;;;;;5002886;28;20076;-57
2024/03/01 04:31:24;;;;;;;47.57;20.73;;;;;;;;;;4992247;28;20395;-57
2024/03/01 04:33:49;;;;;;;48.50;20.57;;;;;;;;;;5003049;28;20033;-57
2024/03/01 04:36:14;;;;;;;49.30;20.17;;;;;;;;;;5012853;28;20069;-57
2024/03/01 04:38:39;;;;;;;46.15;19.98;;;;;;;;;;5014791;28;20080;-57
2024/03/01 04:41:05;;;;;;;44.43;20.30;;;;;;;;;;5019275;28;20021;-61
2024/03/01 04:43:31;;;;;;;49.10;21.23;;;;;;;;;;5021207;28;20079;-57
2024/03/01 04:45:56;;;;;;;48.40;20.90;;;;;;;;;;5023427;28;20039;-58
2024/03/01 04:48:21;;;;;;;42.77;19.23;;;;;;;;;;5026681;28;20492;-56
2024/03/01 04:50:46;;;;;;;44.30;19.70;;;;;;;;;;5023394;28;20022;-57
2024/03/01 04:53:11;;;;;;;45.47;22.10;;;;;;;;;;5019746;28;20129;-56
2024/03/01 04:55:37;;;;;;;41.67;20.83;;;;;;;;;;5018557;28;20105;-57
2024/03/01 04:58:02;;;;;;;45.60;21.00;;;;;;;;;;5018668;28;20045;-58
2024/03/01 05:00:27;;;;;;;46.47;21.90;;;;;;;;;;5026799;28;20030;-58
2024/03/01 05:02:54;;;;;;;50.35;21.67;;;;;;;;;;5016908;28;20386;-58
2024/03/01 05:05:22;;;;;;;50.33;24.08;;;;;;;;;;5022083;28;20033;-59
2024/03/01 05:07:48;;;;;;;49.55;23.85;;;;;;;;;;5015704;28;20425;-58
2024/03/01 05:10:23;;;;;;;47.88;21.40;;;;;;;;;;5018020;28;20124;-57
2024/03/01 05:13:02;;;;;;;46.53;21.73;;;;;;;;;;5011729;28;20025;-57
2024/03/01 05:15:27;;;;;;;53.20;22.25;;;;;;;;;;5017417;28;20021;-57
2024/03/01 05:17:52;;;;;;;46.03;22.23;;;;;;;;;;5014642;28;20032;-58
2024/03/01 05:20:19;;;;;;;48.70;23.37;;;;;;;;;;5015041;28;20548;-57
2024/03/01 05:22:44;;;;;;;45.63;21.90;;;;;;;;;;5019353;28;20274;-57
2024/03/01 05:25:15;;;;;;;46.27;22.07;;;;;;;;;;5014087;28;20030;-57
2024/03/01 05:27:41;;;;;;;47.05;23.05;;;;;;;;;;5013596;28;20068;-59
2024/03/01 05:30:08;;;;;;;44.60;21.70;;;;;;;;;;5014838;28;20034;-58
2024/03/01 05:32:33;;;;;;;47.60;22.25;;;;;;;;;;5010955;28;20038;-57
2024/03/01 05:34:59;;;;;;;42.67;22.37;;;;;;;;;;5008352;28;20080;-58
2024/03/01 05:37:24;;;;;;;43.08;22.38;;;;;;;;;;5010913;28;20049;-57
2024/03/01 05:39:49;;;;;;;42.78;19.55;;;;;;;;;;5011630;28;20084;-58
2024/03/01 05:42:15;;;;;;;47.38;21.55;;;;;;;;;;5013445;28;20033;-59
2024/03/01 05:44:40;;;;;;;45.72;21.00;;;;;;;;;;5015668;28;20038;-57
2024/03/01 05:47:05;;;;;;;39.73;20.47;;;;;;;;;;5017089;28;20030;-57
2024/03/01 05:49:30;;;;;;;42.80;20.70;;;;;;;;;;5023348;28;20088;-58
2024/03/01 05:51:55;;;;;;;41.58;21.42;;;;;;;;;;5015903;28;20021;-57
2024/03/01 05:54:21;;;;;;;47.67;20.85;;;;;;;;;;5011378;28;20029;-56
2024/03/01 05:56:46;;;;;;;48.30;23.45;;;;;;;;;;5032760;28;20030;-57
2024/03/01 05:59:11;;;;;;;54.10;25.43;;;;;;;;;;5019386;28;20030;-56
2024/03/01 06:01:36;;;;;;;49.47;23.83;;;;;;;;;;5014379;28;20044;-57
2024/03/01 06:04:09;;;;;;;52.63;24.60;;;;;;;;;;5014091;28;20497;-59
2024/03/01 06:06:35;;;;;;;50.50;25.25;;;;;;;;;;5028456;28;20025;-58
2024/03/01 06:09:00;;;;;;;47.50;23.23;;;;;;;;;;5016504;28;20026;-58
2024/03/01 06:11:25;;;;;;;47.50;21.98;;;;;;;;;;5017423;28;20065;-58
2024/03/01 06:13:50;;;;;;;48.08;23.08;;;;;;;;;;5015603;28;20556;-59
2024/03/01 06:16:15;;;;;;;41.85;19.77;;;;;;;;;;5021460;28;20065;-58
2024/03/01 06:18:40;;;;;;;45.23;21.73;;;;;;;;;;5024315;28;20022;-57
2024/03/01 06:21:05;;;;;;;44.80;21.70;;;;;;;;;;5020170;28;20025;-59
2024/03/01 06:23:31;;;;;;;40.45;20.00;;;;;;;;;;5013437;28;20014;-58
2024/03/01 06:25:56;;;;;;;43.03;21.03;;;;;;;;;;5017502;28;20089;-58
2024/03/01 06:28:21;;;;;;;45.03;21.20;;;;;;;;;;5014515;28;20017;-57
2024/03/01 06:30:46;;;;;;;43.43;20.73;;;;;;;;;;5016310;28;20021;-58
2024/03/01 06:33:12;;;;;;;41.42;20.70;;;;;;;;;;5019571;28;20560;-57
2024/03/01 06:35:37;;;;;;;48.23;22.13;;;;;;;;;;5019580;28;20026;-56
2024/03/01 06:38:03;;;;;;;39.13;20.30;;;;;;;;;;5016464;28;20536;-58
2024/03/01 06:40:29;;;;;;;41.65;20.42;;;;;;;;;;5012243;28;20512;-58
2024/03/01 06:42:55;;;;;;;40.63;21.15;;;;;;;;;;5012461;28;20109;-58
2024/03/01 06:45:20;;;;;;;37.95;20.02;;;;;;;;;;5012118;28;20026;-58
2024/03/01 06:47:45;;;;;;;41.90;21.20;;;;;;;;;;5012813;28;20025;-56
2024/03/01 06:50:11;;;;;;;41.20;21.33;;;;;;;;;;5012291;28;20022;-56
2024/03/01 06:52:36;;;;;;;41.63;21.10;;;;;;;;;;5013220;28;20459;-57
2024/03/01 06:55:01;;;;;;;41.23;21.70;;;;;;;;;;5016011;28;20030;-57
2024/03/01 06:57:26;;;;;;;44.03;21.63;;;;;;;;;;5006395;28;20018;-57
2024/03/01 06:59:51;;;;;;;39.57;19.40;;;;;;;;;;5011442;28;20014;-57
2024/03/01 07:02:16;;;;;;;41.60;19.20;;;;;;;;;;5010858;28;20021;-58
2024/03/01 07:04:41;;;;;;;40.72;20.35;;;;;;;;;;5011769;28;20132;-57
2024/03/01 07:07:07;;;;;;;42.13;20.25;;;;;;;;;;5012806;28;20056;-57
2024/03/01 07:09:32;;;;;;;40.90;21.45;;;;;;;;;;5008132;28;20022;-57
2024/03/01 07:11:57;;;;;;;35.85;19.00;;;;;;;;;;5013156;28;20017;-57
2024/03/01 07:14:23;;;;;;;37.22;20.27;;;;;;;;;;5012748;28;20061;-58
2024/03/01 07:16:48;;;;;;;42.22;21.13;;;;;;;;;;5012466;28;20564;-56
2024/03/01 07:19:13;;;;;;;40.42;19.52;;;;;;;;;;5011895;28;20032;-58
2024/03/01 07:21:38;;;;;;;38.73;19.53;;;;;;;;;;5012243;28;20078;-57
2024/03/01 07:24:03;;;;;;;37.60;21.15;;;;;;;;;;5013103;28;20037;-58
2024/03/01 07:26:29;;;;;;;40.05;21.20;;;;;;;;;;5002615;28;20026;-57
2024/03/01 07:28:54;;;;;;;39.75;21.05;;;;;;;;;;5029226;28;20021;-58
2024/03/01 07:31:19;;;;;;;40.57;21.33;;;;;;;;;;5020768;28;20017;-57
2024/03/01 07:33:44;;;;;;;40.08;20.65;;;;;;;;;;5014546;28;20018;-59
2024/03/01 07:36:12;;;;;;;35.45;20.40;;;;;;;;;;5011166;28;20030;-58
2024/03/01 07:38:37;;;;;;;37.65;19.92;;;;;;;;;;5013030;28;20045;-58
2024/03/01 07:41:03;;;;;;;33.57;18.30;;;;;;;;;;5013337;28;20030;-57
2024/03/01 07:43:29;;;;;;;42.40;21.02;;;;;;;;;;5012352;28;20053;-59
2024/03/01 07:45:55;;;;;;;42.53;22.13;;;;;;;;;;5011884;28;20042;-59
2024/03/01 07:48:21;;;;;;;43.35;20.77;;;;;;;;;;5012496;28;20034;-58
2024/03/01 07:50:46;;;;;;;39.38;20.75;;;;;;;;;;5010942;28;20048;-58
2024/03/01 07:53:11;;;;;;;37.22;19.23;;;;;;;;;;5022960;28;20033;-57
2024/03/01 07:55:36;;;;;;;37.37;20.03;;;;;;;;;;5028291;28;20018;-57
2024/03/01 07:58:01;;;;;;;37.63;20.70;;;;;;;;;;5020452;28;20033;-57
2024/03/01 08:00:26;;;;;;;42.77;20.63;;;;;;;;;;5009810;28;20018;-59
2024/03/01 08:02:58;;;;;;;38.20;20.83;;;;;;;;;;5004176;28;20141;-58
2024/03/01 08:05:23;;;;;;;39.17;20.75;;;;;;;;;;5012166;28;20505;-59
2024/03/01 08:07:48;;;;;;;36.95;20.63;;;;;;;;;;5013491;28;20018;-58
2024/03/01 08:10:15;;;;;;;42.03;21.38;;;;;;;;;;5011582;28;20114;-58
2024/03/01 08:12:41;;;;;;;41.63;22.50;;;;;;;;;;5015351;28;20025;-57
2024/03/01 08:15:07;;;;;;;38.83;22.25;;;;;;;;;;5015132;28;20026;-57
2024/03/01 08:17:33;;;;;;;;;;;;;;;;;;5016410;28;20022;-57
2024/03/01 08:19:58;;;;;;;38.55;20.80;;;;;;;;;;5014926;28;19985;-58
2024/03/01 08:22:24;;;;;;;41.83;20.30;;;;;;;;;;5017689;28;20080;-58
2024/03/01 08:24:52;;;;;;;41.05;20.92;;;;;;;;;;5022908;28;20056;-58
2024/03/01 08:27:24;;;;;;;33.22;19.60;;;;;;;;;;5021449;28;20044;-58
2024/03/01 08:29:49;;;;;;;36.55;19.65;;;;;;;;;;5014768;28;20498;-58
2024/03/01 08:32:33;;;;;;;40.03;20.93;;;;;;;;;;5015014;28;20041;-57
2024/03/01 08:34:58;;;;;;;39.42;19.73;;;;;;;;;;5015347;28;20021;-58
2024/03/01 08:37:25;;;;;;;37.05;19.92;;;;;;;;;;5015445;28;20017;-58
2024/03/01 08:39:53;;;;;;;41.30;21.10;;;;;;;;;;5015038;28;20108;-57
2024/03/01 08:42:19;;;;;;;37.53;19.55;;;;;;;;;;5014058;28;20481;-58
2024/03/01 08:44:44;;;;;;;34.08;19.52;;;;;;;;;;5014935;28;20029;-57
2024/03/01 08:47:26;;;;;;;33.60;19.63;;;;;;;;;;5017213;28;20033;-58
2024/03/01 08:49:54;;;;;;;35.83;19.70;;;;;;;;;;5019959;28;20030;-58
2024/03/01 08:52:25;;;;;;;35.85;19.42;;;;;;;;;;5016142;28;20026;-58
2024/03/01 08:54:51;;;;;;;35.78;19.13;;;;;;;;;;5018266;28;20037;-57
2024/03/01 08:57:16;;;;;;;;;;;;;;;;;;5017569;28;20573;-57
2024/03/01 08:59:44;;;;;;;37.40;19.55;;;;;;;;;;5014977;28;20528;-57
2024/03/01 09:02:30;;;;;;;36.38;20.23;;;;;;;;;;5014636;28;20040;-58
2024/03/01 09:04:55;;;;;;;32.33;18.45;;;;;;;;;;5010625;28;20034;-57
2024/03/01 09:07:24;;;;;;;34.40;20.60;;;;;;;;;;5015081;28;20032;-58
2024/03/01 09:09:49;;;;;;;36.75;19.55;;;;;;;;;;5016661;28;20117;-58
2024/03/01 09:12:22;;;;;;;35.07;18.80;;;;;;;;;;5018783;28;20457;-57
2024/03/01 09:14:49;;;;;;;36.80;20.60;;;;;;;;;;5018476;28;20026;-57
2024/03/01 09:17:14;;;;;;;34.55;20.20;;;;;;;;;;5008927;28;20018;-56
2024/03/01 09:19:40;;;;;;;35.53;21.40;;;;;;;;;;5018429;28;20125;-57
2024/03/01 09:22:06;;;;;;;37.75;20.90;;;;;;;;;;5016899;28;20030;-58
2024/03/01 09:24:35;;;;;;;38.57;20.97;;;;;;;;;;5016905;28;20034;-57
2024/03/01 09:27:03;;;;;;;35.90;21.05;;;;;;;;;;5020751;28;20029;-57
2024/03/01 09:29:29;;;;;;;39.63;20.73;;;;;;;;;;5015566;28;20482;-57
2024/03/01 09:31:57;;;;;;;35.20;20.70;;;;;;;;;;5014675;28;20458;-58
2024/03/01 09:34:25;;;;;;;36.53;18.92;;;;;;;;;;5015599;28;20049;-58
2024/03/01 09:36:51;;;;;;;40.30;21.33;;;;;;;;;;5021597;28;20048;-57
2024/03/01 09:39:17;;;;;;;36.65;21.20;;;;;;;;;;5019621;28;20030;-58
2024/03/01 09:41:54;;;;;;;37.03;21.42;;;;;;;;;;5013831;28;20018;-57
2024/03/01 09:44:31;;;;;;;37.03;21.02;;;;;;;;;;5018721;28;20026;-57
2024/03/01 09:47:12;;;;;;;38.72;20.77;;;;;;;;;;5022450;28;20110;-57
2024/03/01 09:49:37;;;;;;;39.15;20.85;;;;;;;;;;5018818;28;20056;-60
2024/03/01 09:52:03;;;;;;;39.78;21.48;;;;;;;;;;5018180;28;20026;-59
2024/03/01 09:54:34;;;;;;;38.35;22.70;;;;;;;;;;5015827;28;20026;-59
2024/03/01 09:57:12;;;;;;;38.70;21.40;;;;;;;;;;5013336;28;20120;-59
2024/03/01 09:59:51;;;;;;;39.88;21.50;;;;;;;;;;4995231;28;20022;-57
2024/03/01 10:02:22;;;;;;;39.33;22.08;;;;;;;;;;4995558;28;20026;-57
2024/03/01 10:05:07;;;;;;;38.97;22.27;;;;;;;;;;4995073;28;20014;-57
2024/03/01 10:07:32;;;;;;;37.47;20.67;;;;;;;;;;4998344;28;20399;-57
2024/03/01 10:10:16;;;;;;;38.88;21.23;;;;;;;;;;5007151;28;20022;-58
2024/03/01 10:12:46;;;;;;;35.72;20.98;;;;;;;;;;5014029;28;20029;-58
2024/03/01 10:15:14;;;;;;;40.72;21.38;;;;;;;;;;5013826;28;20017;-59
2024/03/01 10:17:58;;;;;;;42.05;21.52;;;;;;;;;;5013586;28;20033;-58
2024/03/01 10:20:42;;;;;;;41.42;21.15;;;;;;;;;;5013508;28;20494;-58
2024/03/01 10:23:19;;;;;;;39.03;21.25;;;;;;;;;;5013545;28;20030;-57
2024/03/01 10:25:54;;;;;;;39.22;22.42;;;;;;;;;;5016276;28;20017;-58
2024/03/01 10:28:34;;;;;;;41.25;22.63;;;;;;;;;;5025255;28;20211;-57
2024/03/01 10:31:22;;;;;;;38.67;21.92;;;;;;;;;;5012729;28;20026;-59
2024/03/01 10:33:59;;;;;;;37.03;22.10;;;;;;;;;;5007823;28;20036;-58
2024/03/01 10:36:42;;;;;;;39.42;22.67;;;;;;;;;;5019215;28;20028;-57
2024/03/01 10:39:09;;;;;;;37.88;21.30;;;;;;;;;;5019566;28;20099;-58
2024/03/01 10:41:47;;;;;;;37.35;20.50;;;;;;;;;;5013706;28;20444;-58
2024/03/01 10:44:31;;;;;;;37.15;21.20;;;;;;;;;;5013083;28;20120;-57
2024/03/01 10:46:59;;;;;;;37.08;22.02;;;;;;;;;;5014159;28;20026;-57
2024/03/01 10:49:26;;;;;;;36.42;21.88;;;;;;;;;;5013587;28;20089;-57
2024/03/01 10:51:53;;;;;;;37.78;22.52;;;;;;;;;;5020678;28;20461;-58
2024/03/01 10:54:20;;;;;;;35.50;21.48;;;;;;;;;;5033422;28;20494;-57
2024/03/01 10:56:47;;;;;;;40.05;22.30;;;;;;;;;;5024895;28;20017;-57
2024/03/01 10:59:20;;;;;;;35.30;20.63;;;;;;;;;;5012194;28;20033;-58
2024/03/01 11:02:05;;;;;;;36.35;21.33;;;;;;;;;;5011963;28;20026;-58
2024/03/01 11:04:36;;;;;;;34.55;20.77;;;;;;;;;;5011871;28;20045;-57
2024/03/01 11:07:10;;;;;;;41.70;20.15;;;;;;;;;;5005571;28;20073;-57
2024/03/01 11:09:43;;;;;;;33.00;19.95;;;;;;;;;;4994539;28;20022;-57
2024/03/01 11:12:14;;;;;;;37.42;19.58;;;;;;;;;;5010748;28;20080;-58
2024/03/01 11:14:44;;;;;;;40.90;22.02;;;;;;;;;;5016514;28;20028;-57
2024/03/01 11:17:10;;;;;;;37.63;21.67;;;;;;;;;;5013130;28;20026;-58
2024/03/01 11:19:36;;;;;;;39.20;21.92;;;;;;;;;;5013195;28;20026;-58
2024/03/01 11:22:22;;;;;;;36.95;23.15;;;;;;;;;;5013807;28;20018;-59
2024/03/01 11:24:52;;;;;;;35.38;20.73;;;;;;;;;;5013822;28;20025;-58
2024/03/01 11:27:22;;;;;;;38.53;22.10;;;;;;;;;;5011744;28;20109;-58
2024/03/01 11:29:50;;;;;;;35.28;21.35;;;;;;;;;;5017678;28;20116;-58
2024/03/01 11:32:22;;;;;;;37.42;21.65;;;;;;;;;;5014163;28;20375;-57
2024/03/01 11:34:56;;;;;;;36.22;21.13;;;;;;;;;;5012102;28;20025;-58
2024/03/01 11:37:27;;;;;;;34.20;21.25;;;;;;;;;;5010592;28;20033;-58
2024/03/01 11:39:58;;;;;;;34.08;20.42;;;;;;;;;;5011985;28;20026;-57
2024/03/01 11:42:29;;;;;;;34.65;20.52;;;;;;;;;;5017690;28;20029;-57
2024/03/01 11:45:00;;;;;;;35.20;20.80;;;;;;;;;;5011276;28;20089;-58
2024/03/01 11:47:44;;;;;;;38.15;22.30;;;;;;;;;;5010829;28;20017;-57
2024/03/01 11:50:33;;;;;;;37.58;21.40;;;;;;;;;;5012191;28;20438;-56
2024/03/01 11:53:04;;;;;;;33.80;19.13;;;;;;;;;;5012327;28;20028;-57
2024/03/01 11:55:49;;;;;;;36.85;20.80;;;;;;;;;;5012720;28;20032;-58
2024/03/01 11:58:20;;;;;;;34.47;19.27;;;;;;;;;;5011204;28;20037;-58
2024/03/01 12:00:51;;;;;;;31.00;17.02;;;;;;;;;;5014069;28;20371;-58
2024/03/01 12:03:19;;;;;;;35.33;19.15;;;;;;;;;;5015710;28;20109;-57
2024/03/01 12:06:02;;;;;;;35.38;19.38;;;;;;;;;;5002590;28;20014;-57
2024/03/01 12:08:37;;;;;;;35.92;18.52;;;;;;;;;;5011678;28;20678;-59
2024/03/01 12:11:23;;;;;;;32.35;18.55;;;;;;;;;;5012153;28;20113;-57
2024/03/01 12:13:59;;;;;;;32.83;19.33;;;;;;;;;;5011622;28;20045;-58
2024/03/01 12:16:44;;;;;;;33.40;19.10;;;;;;;;;;5013834;28;20100;-59
2024/03/01 12:19:27;;;;;;;31.75;19.05;;;;;;;;;;5011916;28;20064;-57
2024/03/01 12:21:52;;;;;;;39.10;20.73;;;;;;;;;;5012048;28;20033;-58
2024/03/01 12:24:19;;;;;;;35.77;20.73;;;;;;;;;;5011714;28;20386;-58
2024/03/01 12:26:59;;;;;;;39.33;22.20;;;;;;;;;;5012385;28;20033;-57
2024/03/01 12:29:27;;;;;;;37.45;21.83;;;;;;;;;;5008046;28;20022;-58
2024/03/01 12:31:52;;;;;;;42.15;22.75;;;;;;;;;;5007907;28;20036;-59
2024/03/01 12:34:20;;;;;;;35.75;21.52;;;;;;;;;;4999618;28;20097;-57
2024/03/01 12:36:45;;;;;;;39.33;22.20;;;;;;;;;;5007505;28;20045;-57
2024/03/01 12:39:12;;;;;;;34.80;21.20;;;;;;;;;;5009088;28;20065;-57
2024/03/01 12:42:01;;;;;;;39.85;21.65;;;;;;;;;;5011443;28;20025;-58
2024/03/01 12:44:45;;;;;;;33.28;19.58;;;;;;;;;;5011012;28;20096;-57
2024/03/01 12:47:16;;;;;;;32.45;19.05;;;;;;;;;;5003130;28;20450;-57
2024/03/01 12:49:58;;;;;;;38.97;21.15;;;;;;;;;;5009595;28;20026;-57
2024/03/01 12:52:31;;;;;;;36.47;21.60;;;;;;;;;;5019194;28;20075;-57
2024/03/01 12:55:06;;;;;;;36.42;20.15;;;;;;;;;;5006187;28;20034;-57
2024/03/01 12:57:38;;;;;;;34.65;21.30;;;;;;;;;;5012088;28;20017;-58
2024/03/01 13:00:13;;;;;;;35.60;21.23;;;;;;;;;;5017224;28;20045;-57
2024/03/01 13:02:40;;;;;;;39.35;21.77;;;;;;;;;;5012254;28;20025;-57
2024/03/01 13:05:23;;;;;;;34.30;21.50;;;;;;;;;;5011828;28;20030;-58
2024/03/01 13:07:52;;;;;;;35.60;21.75;;;;;;;;;;5014010;28;20433;-57
2024/03/01 13:10:18;;;;;;;31.52;19.42;;;;;;;;;;5014205;28;20079;-57
2024/03/01 13:12:44;;;;;;;39.17;21.60;;;;;;;;;;5014804;28;20026;-59
2024/03/01 13:15:17;;;;;;;35.67;21.77;;;;;;;;;;5016489;28;20053;-57
2024/03/01 13:18:02;;;;;;;33.58;20.35;;;;;;;;;;5014730;28;20136;-58
2024/03/01 13:20:47;;;;;;;36.55;21.45;;;;;;;;;;5011857;28;20034;-58
2024/03/01 13:23:23;;;;;;;38.42;20.20;;;;;;;;;;5012482;28;20111;-57
2024/03/01 13:26:07;;;;;;;33.70;20.17;;;;;;;;;;5017365;28;20028;-58
2024/03/01 13:28:34;;;;;;;33.42;21.40;;;;;;;;;;5009681;28;20052;-58
2024/03/01 13:31:08;;;;;;;30.65;19.77;;;;;;;;;;5013053;28;20037;-57
2024/03/01 13:33:43;;;;;;;34.40;21.23;;;;;;;;;;5012264;28;20091;-58
2024/03/01 13:36:13;;;;;;;33.80;19.17;;;;;;;;;;5011962;28;20147;-59
2024/03/01 13:38:58;;;;;;;36.65;19.63;;;;;;;;;;5012621;28;20478;-58
2024/03/01 13:41:27;;;;;;;31.92;19.58;;;;;;;;;;5021911;28;20024;-58
2024/03/01 13:44:00;;;;;;;30.58;19.48;;;;;;;;;;5007225;28;20022;-57
2024/03/01 13:46:32;;;;;;;34.45;19.60;;;;;;;;;;4994254;28;20495;-58
2024/03/01 13:48:57;;;;;;;;;;;;;;;;;;4994714;28;20025;-58
2024/03/01 13:51:23;;;;;;;30.60;18.10;;;;;;;;;;5015274;28;19992;-59
2024/03/01 13:53:50;;;;;;;32.25;18.58;;;;;;;;;;5020213;28;20024;-58
2024/03/01 13:56:15;;;;;;;31.63;19.08;;;;;;;;;;5024276;28;20026;-59
2024/03/01 13:58:40;;;;;;;35.57;18.77;;;;;;;;;;5025579;28;20040;-57
2024/03/01 14:01:06;;;;;;;30.23;18.17;;;;;;;;;;5018210;28;20548;-58
2024/03/01 14:03:31;;;;;;;34.45;18.35;;;;;;;;;;5023891;28;20846;-59
2024/03/01 14:05:58;;;;;;;32.93;19.73;;;;;;;;;;5017112;28;20033;-57
2024/03/01 14:08:26;;;;;;;35.28;20.10;;;;;;;;;;5014529;28;20109;-58
2024/03/01 14:10:55;;;;;;;32.70;19.48;;;;;;;;;;5015868;28;20478;-58
2024/03/01 14:13:23;;;;;;;35.60;20.67;;;;;;;;;;5017956;28;20030;-59
2024/03/01 14:15:53;;;;;;;32.78;18.73;;;;;;;;;;5013048;28;20490;-59
2024/03/01 14:18:18;;;;;;;31.17;20.67;;;;;;;;;;5015023;28;20030;-58
2024/03/01 14:20:43;;;;;;;35.65;20.10;;;;;;;;;;5012309;28;20369;-57
2024/03/01 14:23:10;;;;;;;27.00;18.38;;;;;;;;;;5014065;28;20413;-58
2024/03/01 14:25:35;;;;;;;32.53;20.50;;;;;;;;;;5014314;28;20033;-58